Time;durP1;ratioP1;P1;durP2;ratioP2;P2;SDS_P1;SDS_P2;PMS_P1;PMS_P2;Temp;Humidity;BMP_temperature;BMP_pressure;BME280_temperature;BME280_humidity;BME280_pressure;Samples;Min_cycle;Max_cycle;Signal;HPM_P1;HPM_P2
2021/11/16 00:00:34;;;;;;;2.47;2.28;;;;;;;;;;2086398;28;20033;-81
2021/11/16 00:01:53;;;;;;;2.75;2.13;;;;;;;;;;2088854;28;20017;-81
2021/11/16 00:03:12;;;;;;;1.95;1.80;;;;;;;;;;2087880;28;20045;-81
2021/11/16 00:04:31;;;;;;;1.80;1.70;;;;;;;;;;2088641;28;20033;-82
2021/11/16 00:05:50;;;;;;;3.00;2.00;;;;;;;;;;2084429;28;20033;-81
2021/11/16 00:07:11;;;;;;;2.10;2.00;;;;;;;;;;2087743;28;20017;-81
2021/11/16 00:08:30;;;;;;;1.92;1.77;;;;;;;;;;2086526;28;20147;-81
2021/11/16 00:09:48;;;;;;;2.85;1.75;;;;;;;;;;2084492;28;20128;-81
2021/11/16 00:11:08;;;;;;;2.47;2.08;;;;;;;;;;2085141;28;20025;-81
2021/11/16 00:12:27;;;;;;;2.13;1.92;;;;;;;;;;2085683;28;20029;-81
2021/11/16 00:13:46;;;;;;;5.20;1.90;;;;;;;;;;2086538;28;20517;-81
2021/11/16 00:15:05;;;;;;;2.03;1.88;;;;;;;;;;2088847;28;20025;-81
2021/11/16 00:16:25;;;;;;;2.08;1.88;;;;;;;;;;2089497;28;20477;-81
2021/11/16 00:17:45;;;;;;;1.90;1.70;;;;;;;;;;2087087;28;20432;-81
2021/11/16 00:19:06;;;;;;;2.30;2.10;;;;;;;;;;2085651;28;20029;-82
2021/11/16 00:20:25;;;;;;;2.33;2.13;;;;;;;;;;2088748;28;20147;-81
2021/11/16 00:21:45;;;;;;;2.40;2.20;;;;;;;;;;2085669;28;20036;-81
2021/11/16 00:23:04;;;;;;;2.03;1.92;;;;;;;;;;2086855;28;20120;-81
2021/11/16 00:24:36;;;;;;;2.63;2.38;;;;;;;;;;2088758;28;20033;-81
2021/11/16 00:25:56;;;;;;;4.28;2.60;;;;;;;;;;2089360;28;20419;-82
2021/11/16 00:27:15;;;;;;;3.03;2.67;;;;;;;;;;2093767;28;20032;-82
2021/11/16 00:28:34;;;;;;;2.35;2.15;;;;;;;;;;2092901;28;20025;-81
2021/11/16 00:29:52;;;;;;;2.33;2.13;;;;;;;;;;2089022;28;20029;-81
2021/11/16 00:31:12;;;;;;;3.55;2.50;;;;;;;;;;2087615;28;20029;-81
2021/11/16 00:32:31;;;;;;;2.55;2.35;;;;;;;;;;2092759;28;20036;-81
2021/11/16 00:33:49;;;;;;;3.17;2.10;;;;;;;;;;2091003;28;20481;-81
2021/11/16 00:35:09;;;;;;;3.08;1.85;;;;;;;;;;2089033;28;20036;-81
2021/11/16 00:36:29;;;;;;;2.90;2.47;;;;;;;;;;2083181;28;20025;-81
2021/11/16 00:37:47;;;;;;;2.55;2.35;;;;;;;;;;2083490;28;20034;-81
2021/11/16 00:39:06;;;;;;;3.97;2.20;;;;;;;;;;2086676;28;20436;-81
2021/11/16 00:40:25;;;;;;;2.28;2.08;;;;;;;;;;2084717;28;20033;-81
2021/11/16 00:41:44;;;;;;;3.00;2.35;;;;;;;;;;2087261;28;20033;-81
2021/11/16 00:43:06;;;;;;;2.60;2.40;;;;;;;;;;2088446;28;20032;-81
2021/11/16 00:44:25;;;;;;;3.47;2.28;;;;;;;;;;2085680;28;20044;-81
2021/11/16 00:45:46;;;;;;;2.50;2.05;;;;;;;;;;2085167;28;20048;-82
2021/11/16 00:47:05;;;;;;;3.00;2.70;;;;;;;;;;2085703;28;20114;-81
2021/11/16 00:48:25;;;;;;;4.88;2.55;;;;;;;;;;2089282;28;20025;-81
2021/11/16 00:49:45;;;;;;;4.05;2.30;;;;;;;;;;2088211;28;20033;-81
2021/11/16 00:51:05;;;;;;;3.63;2.00;;;;;;;;;;2087107;28;20470;-80
2021/11/16 00:52:24;;;;;;;2.92;2.72;;;;;;;;;;2085767;28;20025;-81
2021/11/16 00:53:43;;;;;;;3.78;2.63;;;;;;;;;;2088082;28;20493;-81
2021/11/16 00:55:02;;;;;;;3.17;2.10;;;;;;;;;;2084700;28;20029;-81
2021/11/16 00:56:22;;;;;;;3.40;2.58;;;;;;;;;;2093230;28;20024;-82
2021/11/16 00:57:44;;;;;;;3.60;2.83;;;;;;;;;;2088619;28;20029;-81
2021/11/16 00:59:03;;;;;;;3.38;2.45;;;;;;;;;;2089196;28;20551;-81
2021/11/16 01:00:22;;;;;;;2.78;2.58;;;;;;;;;;2084096;28;20064;-81
2021/11/16 01:01:40;;;;;;;2.50;2.10;;;;;;;;;;2086232;28;20026;-82
2021/11/16 01:02:59;;;;;;;2.97;2.67;;;;;;;;;;2089183;28;20025;-81
2021/11/16 01:04:18;;;;;;;2.63;2.42;;;;;;;;;;2087330;28;20481;-81
2021/11/16 01:05:39;;;;;;;3.20;2.58;;;;;;;;;;2089391;28;20032;-81
2021/11/16 01:06:58;;;;;;;2.60;2.40;;;;;;;;;;2085752;28;20488;-81
2021/11/16 01:08:17;;;;;;;2.60;2.40;;;;;;;;;;2085496;28;20041;-81
2021/11/16 01:09:36;;;;;;;2.90;2.60;;;;;;;;;;2087345;28;20678;-81
2021/11/16 01:10:56;;;;;;;3.10;2.80;;;;;;;;;;2083991;28;20038;-82
2021/11/16 01:12:16;;;;;;;2.53;2.33;;;;;;;;;;2084155;28;20025;-81
2021/11/16 01:13:35;;;;;;;3.83;2.65;;;;;;;;;;2085585;28;20033;-82
2021/11/16 01:14:57;;;;;;;2.67;2.47;;;;;;;;;;2087505;28;20397;-82
2021/11/16 01:16:16;;;;;;;4.10;2.70;;;;;;;;;;2088804;28;20021;-81
2021/11/16 01:17:35;;;;;;;2.90;2.70;;;;;;;;;;2082637;28;20100;-82
2021/11/16 01:18:54;;;;;;;3.17;2.92;;;;;;;;;;2084756;28;20485;-81
2021/11/16 01:20:14;;;;;;;3.65;2.92;;;;;;;;;;2084677;28;20041;-82
2021/11/16 01:21:33;;;;;;;3.70;3.28;;;;;;;;;;2086076;28;20033;-81
2021/11/16 01:22:54;;;;;;;3.70;2.60;;;;;;;;;;2085970;28;20485;-82
2021/11/16 01:24:14;;;;;;;4.88;2.80;;;;;;;;;;2087429;28;20033;-81
2021/11/16 01:25:37;;;;;;;3.28;2.90;;;;;;;;;;2095670;28;20037;-81
2021/11/16 01:26:56;;;;;;;;;;;;;;;;;;2089023;28;20105;-82
2021/11/16 01:28:18;;;;;;;3.78;2.95;;;;;;;;;;2085579;28;19905;-81
2021/11/16 01:29:38;;;;;;;3.60;2.38;;;;;;;;;;2085551;28;20025;-82
2021/11/16 01:31:02;;;;;;;3.05;2.72;;;;;;;;;;2081977;28;20059;-81
2021/11/16 01:32:32;;;;;;;3.35;2.90;;;;;;;;;;2085109;28;20029;-81
2021/11/16 01:33:56;;;;;;;2.60;2.40;;;;;;;;;;2086798;28;20017;-82
2021/11/16 01:35:15;;;;;;;3.03;2.33;;;;;;;;;;2088313;28;20510;-81
2021/11/16 01:36:34;;;;;;;3.55;3.10;;;;;;;;;;2089058;28;20033;-81
2021/11/16 01:37:53;;;;;;;3.03;2.72;;;;;;;;;;2088133;28;20025;-81
2021/11/16 01:39:12;;;;;;;3.60;3.03;;;;;;;;;;2085849;28;20435;-81
2021/11/16 01:40:31;;;;;;;3.40;2.90;;;;;;;;;;2086089;28;20033;-81
2021/11/16 01:41:50;;;;;;;3.72;2.53;;;;;;;;;;2084581;28;20029;-81
2021/11/16 01:43:10;;;;;;;3.55;2.45;;;;;;;;;;2087753;28;20041;-81
2021/11/16 01:44:29;;;;;;;4.43;2.90;;;;;;;;;;2091550;28;20417;-81
2021/11/16 01:45:48;;;;;;;3.63;2.70;;;;;;;;;;2087234;28;20103;-81
2021/11/16 01:47:07;;;;;;;2.95;2.75;;;;;;;;;;2088920;28;20025;-82
2021/11/16 01:48:26;;;;;;;3.50;3.10;;;;;;;;;;2090339;28;20029;-81
2021/11/16 01:49:45;;;;;;;3.30;3.00;;;;;;;;;;2089586;28;20557;-81
2021/11/16 01:51:04;;;;;;;3.47;2.97;;;;;;;;;;2090385;28;20029;-81
2021/11/16 01:52:23;;;;;;;2.90;2.70;;;;;;;;;;2090118;28;20025;-81
2021/11/16 01:53:42;;;;;;;4.32;2.65;;;;;;;;;;2091104;28;20021;-82
2021/11/16 01:55:02;;;;;;;3.25;2.35;;;;;;;;;;2089398;28;20053;-81
2021/11/16 01:56:21;;;;;;;3.42;2.67;;;;;;;;;;2090221;28;20025;-81
2021/11/16 01:57:40;;;;;;;4.95;3.35;;;;;;;;;;2086725;28;20033;-81
2021/11/16 01:58:59;;;;;;;3.22;2.92;;;;;;;;;;2088477;28;20026;-81
2021/11/16 02:00:22;;;;;;;3.55;3.25;;;;;;;;;;2089074;28;20073;-81
2021/11/16 02:01:41;;;;;;;;;;;;;;;;;;2091913;28;20396;-81
2021/11/16 02:03:00;;;;;;;4.45;3.03;;;;;;;;;;2089595;28;19912;-81
2021/11/16 02:04:20;;;;;;;3.05;2.75;;;;;;;;;;2088917;28;20033;-81
2021/11/16 02:05:41;;;;;;;3.22;2.70;;;;;;;;;;2088804;28;20060;-81
2021/11/16 02:07:00;;;;;;;4.97;2.90;;;;;;;;;;2089547;28;20060;-81
2021/11/16 02:08:20;;;;;;;3.67;3.05;;;;;;;;;;2087109;28;20025;-81
2021/11/16 02:09:39;;;;;;;3.15;2.85;;;;;;;;;;2089003;28;20033;-81
2021/11/16 02:10:58;;;;;;;3.63;3.33;;;;;;;;;;2088285;28;20025;-81
2021/11/16 02:12:17;;;;;;;3.42;2.90;;;;;;;;;;2084982;28;20064;-81
2021/11/16 02:13:36;;;;;;;2.80;2.58;;;;;;;;;;2085846;28;20385;-81
2021/11/16 02:14:55;;;;;;;3.03;2.70;;;;;;;;;;2090688;28;20432;-81
2021/11/16 02:16:14;;;;;;;3.35;3.05;;;;;;;;;;2085476;28;20377;-81
2021/11/16 02:17:33;;;;;;;2.90;2.60;;;;;;;;;;2081749;28;20037;-81
2021/11/16 02:18:52;;;;;;;2.90;2.70;;;;;;;;;;2086610;28;20029;-81
2021/11/16 02:20:11;;;;;;;3.28;2.97;;;;;;;;;;2086612;28;20021;-81
2021/11/16 02:21:29;;;;;;;3.13;2.78;;;;;;;;;;2085818;28;20024;-81
2021/11/16 02:22:48;;;;;;;3.17;2.63;;;;;;;;;;2085401;28;20029;-81
2021/11/16 02:24:08;;;;;;;4.00;3.13;;;;;;;;;;2084985;28;20013;-82
2021/11/16 02:25:27;;;;;;;3.58;2.95;;;;;;;;;;2085938;28;20029;-82
2021/11/16 02:26:47;;;;;;;4.68;2.55;;;;;;;;;;2087516;28;20036;-81
2021/11/16 02:28:06;;;;;;;3.25;2.95;;;;;;;;;;2094056;28;20028;-81
2021/11/16 02:29:24;;;;;;;3.70;3.17;;;;;;;;;;2087393;28;20031;-81
2021/11/16 02:30:44;;;;;;;2.97;2.53;;;;;;;;;;2086409;28;20037;-80
2021/11/16 02:32:03;;;;;;;4.93;3.60;;;;;;;;;;2090689;28;20025;-81
2021/11/16 02:33:22;;;;;;;4.78;3.00;;;;;;;;;;2089587;28;20017;-81
2021/11/16 02:34:41;;;;;;;3.60;2.72;;;;;;;;;;2085111;28;20416;-81
2021/11/16 02:36:00;;;;;;;2.88;2.58;;;;;;;;;;2084959;28;20033;-82
2021/11/16 02:37:19;;;;;;;2.40;2.20;;;;;;;;;;2087948;28;20037;-82
2021/11/16 02:38:39;;;;;;;3.33;2.97;;;;;;;;;;2085745;28;20037;-81
2021/11/16 02:39:59;;;;;;;2.67;2.47;;;;;;;;;;2084000;28;20026;-81
2021/11/16 02:41:18;;;;;;;3.38;3.08;;;;;;;;;;2085966;28;20033;-81
2021/11/16 02:42:38;;;;;;;3.22;2.80;;;;;;;;;;2086613;28;20094;-81
2021/11/16 02:43:58;;;;;;;3.50;3.20;;;;;;;;;;2084432;28;20025;-81
2021/11/16 02:45:17;;;;;;;3.08;2.78;;;;;;;;;;2089179;28;20112;-80
2021/11/16 02:46:37;;;;;;;3.28;2.97;;;;;;;;;;2092441;28;20025;-81
2021/11/16 02:47:56;;;;;;;3.35;3.05;;;;;;;;;;2088976;28;20107;-80
2021/11/16 02:49:16;;;;;;;3.40;3.10;;;;;;;;;;2091077;28;20021;-81
2021/11/16 02:50:35;;;;;;;4.25;3.10;;;;;;;;;;2090732;28;20029;-81
2021/11/16 02:51:54;;;;;;;3.47;3.17;;;;;;;;;;2089508;28;20533;-81
2021/11/16 02:53:14;;;;;;;6.30;3.40;;;;;;;;;;2086347;28;20037;-80
2021/11/16 02:54:33;;;;;;;3.75;2.75;;;;;;;;;;2096063;28;20028;-80
2021/11/16 02:55:53;;;;;;;3.85;3.17;;;;;;;;;;2087722;28;20048;-81
2021/11/16 02:57:12;;;;;;;5.78;3.03;;;;;;;;;;2081565;28;20572;-81
2021/11/16 02:58:31;;;;;;;3.38;3.08;;;;;;;;;;2090282;28;20041;-81
2021/11/16 02:59:50;;;;;;;5.55;3.13;;;;;;;;;;2085572;28;20497;-80
2021/11/16 03:01:11;;;;;;;5.38;3.13;;;;;;;;;;2087046;28;20037;-80
2021/11/16 03:02:30;;;;;;;3.60;3.28;;;;;;;;;;2086999;28;20036;-80
2021/11/16 03:03:49;;;;;;;4.13;3.00;;;;;;;;;;2086558;28;20148;-80
2021/11/16 03:05:09;;;;;;;3.20;2.90;;;;;;;;;;2087447;28;20025;-81
2021/11/16 03:06:28;;;;;;;4.43;2.60;;;;;;;;;;2089756;28;20029;-81
2021/11/16 03:07:55;;;;;;;3.20;2.90;;;;;;;;;;2084692;28;20033;-80
2021/11/16 03:09:14;;;;;;;4.10;3.33;;;;;;;;;;2087130;28;20495;-80
2021/11/16 03:10:33;;;;;;;3.35;3.03;;;;;;;;;;2086967;28;20052;-81
2021/11/16 03:11:52;;;;;;;4.88;3.67;;;;;;;;;;2087157;28;20057;-80
2021/11/16 03:13:12;;;;;;;3.10;2.80;;;;;;;;;;2088626;28;20029;-80
2021/11/16 03:14:31;;;;;;;3.28;2.88;;;;;;;;;;2086621;28;20462;-81
2021/11/16 03:15:50;;;;;;;5.80;3.15;;;;;;;;;;2085354;28;20041;-81
2021/11/16 03:17:10;;;;;;;4.20;3.25;;;;;;;;;;2088403;28;20504;-80
2021/11/16 03:18:29;;;;;;;3.58;3.28;;;;;;;;;;2089336;28;20116;-80
2021/11/16 03:19:48;;;;;;;3.85;2.72;;;;;;;;;;2085359;28;20032;-80
2021/11/16 03:21:07;;;;;;;4.22;3.00;;;;;;;;;;2086394;28;20033;-81
2021/11/16 03:22:35;;;;;;;4.03;3.22;;;;;;;;;;2087568;28;20112;-81
2021/11/16 03:23:57;;;;;;;5.18;3.20;;;;;;;;;;2088034;28;20033;-81
2021/11/16 03:25:19;;;;;;;4.13;3.30;;;;;;;;;;2089426;28;20456;-81
2021/11/16 03:26:38;;;;;;;4.22;2.88;;;;;;;;;;2085782;28;20029;-80
2021/11/16 03:28:02;;;;;;;3.70;3.38;;;;;;;;;;2086751;28;20025;-81
2021/11/16 03:29:25;;;;;;;4.13;3.42;;;;;;;;;;2089501;28;20017;-81
2021/11/16 03:30:44;;;;;;;3.80;3.47;;;;;;;;;;2085605;28;20026;-81
2021/11/16 03:32:06;;;;;;;5.40;3.47;;;;;;;;;;2089341;28;20873;-81
2021/11/16 03:33:26;;;;;;;3.65;2.90;;;;;;;;;;2088822;28;20033;-81
2021/11/16 03:34:45;;;;;;;3.17;2.88;;;;;;;;;;2085156;28;20052;-81
2021/11/16 03:36:05;;;;;;;3.92;3.45;;;;;;;;;;2088606;28;20033;-81
2021/11/16 03:37:29;;;;;;;4.25;3.25;;;;;;;;;;2084745;28;20021;-80
2021/11/16 03:38:49;;;;;;;4.00;3.30;;;;;;;;;;2088004;28;20423;-81
2021/11/16 03:40:09;;;;;;;4.45;3.30;;;;;;;;;;2089688;28;20037;-81
2021/11/16 03:41:31;;;;;;;3.65;3.35;;;;;;;;;;2084939;28;20107;-81
2021/11/16 03:42:50;;;;;;;5.85;3.70;;;;;;;;;;2088910;28;20111;-81
2021/11/16 03:44:09;;;;;;;4.90;3.65;;;;;;;;;;2088573;28;20032;-81
2021/11/16 03:45:27;;;;;;;3.85;3.38;;;;;;;;;;2087217;28;20492;-81
2021/11/16 03:46:47;;;;;;;4.05;3.28;;;;;;;;;;2089431;28;20029;-81
2021/11/16 03:48:07;;;;;;;4.07;3.25;;;;;;;;;;2088493;28;20017;-81
2021/11/16 03:49:26;;;;;;;7.93;3.72;;;;;;;;;;2085279;28;20025;-81
2021/11/16 03:50:45;;;;;;;3.75;3.33;;;;;;;;;;2088305;28;20029;-81
2021/11/16 03:52:04;;;;;;;6.75;4.00;;;;;;;;;;2085766;28;20020;-81
2021/11/16 03:53:23;;;;;;;5.15;3.40;;;;;;;;;;2083482;28;20096;-81
2021/11/16 03:54:42;;;;;;;3.95;3.45;;;;;;;;;;2088500;28;20063;-80
2021/11/16 03:56:01;;;;;;;4.43;3.70;;;;;;;;;;2086838;28;20032;-80
2021/11/16 03:57:22;;;;;;;5.10;4.03;;;;;;;;;;2087823;28;20505;-81
2021/11/16 03:58:43;;;;;;;3.80;3.10;;;;;;;;;;2085018;28;20033;-81
2021/11/16 04:00:04;;;;;;;3.67;3.38;;;;;;;;;;2088379;28;20037;-81
2021/11/16 04:01:24;;;;;;;5.45;4.03;;;;;;;;;;2087611;28;20506;-81
2021/11/16 04:02:42;;;;;;;5.38;3.53;;;;;;;;;;2085873;28;20480;-81
2021/11/16 04:04:02;;;;;;;3.88;3.50;;;;;;;;;;2087873;28;20072;-81
2021/11/16 04:05:23;;;;;;;4.05;3.65;;;;;;;;;;2086703;28;20096;-81
2021/11/16 04:06:42;;;;;;;4.65;4.22;;;;;;;;;;2077333;28;20100;-80
2021/11/16 04:08:01;;;;;;;4.65;3.80;;;;;;;;;;2082707;28;20021;-81
2021/11/16 04:09:20;;;;;;;5.68;4.10;;;;;;;;;;2086299;28;20033;-80
2021/11/16 04:10:39;;;;;;;4.15;3.63;;;;;;;;;;2084361;28;20041;-81
2021/11/16 04:11:58;;;;;;;4.43;3.83;;;;;;;;;;2085839;28;20033;-81
2021/11/16 04:13:17;;;;;;;5.53;3.60;;;;;;;;;;2085002;28;20029;-81
2021/11/16 04:14:36;;;;;;;5.50;3.75;;;;;;;;;;2094877;28;20119;-81
2021/11/16 04:15:55;;;;;;;3.95;3.50;;;;;;;;;;2088153;28;20432;-81
2021/11/16 04:17:14;;;;;;;6.35;4.30;;;;;;;;;;2085426;28;20513;-81
2021/11/16 04:18:33;;;;;;;5.05;3.75;;;;;;;;;;2087952;28;20044;-81
2021/11/16 04:19:53;;;;;;;5.15;4.05;;;;;;;;;;2085322;28;20448;-81
2021/11/16 04:21:12;;;;;;;5.40;4.07;;;;;;;;;;2086962;28;20024;-81
2021/11/16 04:22:31;;;;;;;4.68;4.03;;;;;;;;;;2084767;28;20100;-81
2021/11/16 04:23:50;;;;;;;5.40;4.45;;;;;;;;;;2089724;28;20432;-81
2021/11/16 04:25:09;;;;;;;6.00;4.32;;;;;;;;;;2089138;28;20025;-80
2021/11/16 04:26:28;;;;;;;5.60;4.20;;;;;;;;;;2087058;28;20025;-80
2021/11/16 04:27:47;;;;;;;5.68;4.30;;;;;;;;;;2086066;28;20056;-80
2021/11/16 04:29:06;;;;;;;6.65;4.22;;;;;;;;;;2089492;28;20489;-81
2021/11/16 04:30:25;;;;;;;5.80;4.60;;;;;;;;;;2088080;28;20033;-80
2021/11/16 04:31:44;;;;;;;6.25;4.68;;;;;;;;;;2086459;28;20068;-80
2021/11/16 04:33:04;;;;;;;5.38;4.30;;;;;;;;;;2088325;28;20203;-80
2021/11/16 04:34:23;;;;;;;5.22;4.22;;;;;;;;;;2093114;28;20021;-80
2021/11/16 04:35:42;;;;;;;6.55;4.15;;;;;;;;;;2083746;28;20481;-80
2021/11/16 04:37:00;;;;;;;4.78;4.07;;;;;;;;;;2086776;28;20469;-80
2021/11/16 04:38:19;;;;;;;8.77;4.90;;;;;;;;;;2088340;28;20517;-80
2021/11/16 04:39:38;;;;;;;5.85;4.28;;;;;;;;;;2088357;28;20493;-80
2021/11/16 04:41:00;;;;;;;6.43;4.25;;;;;;;;;;2087765;28;20037;-80
2021/11/16 04:42:19;;;;;;;6.53;4.30;;;;;;;;;;2085769;28;20494;-80
2021/11/16 04:43:39;;;;;;;6.78;4.45;;;;;;;;;;2086111;28;20497;-81
2021/11/16 04:44:57;;;;;;;5.72;4.18;;;;;;;;;;2089148;28;20120;-81
2021/11/16 04:46:20;;;;;;;5.05;4.53;;;;;;;;;;2089217;28;20413;-81
2021/11/16 04:54:07;;;;;;;5.47;4.47;;;;;;;;;;2087784;28;20111;-81
2021/11/16 05:03:10;;;;;;;11.65;5.00;;;;;;;;;;2090925;28;20037;-81
2021/11/16 05:04:29;;;;;;;6.47;4.70;;;;;;;;;;2086415;28;20024;-81
2021/11/16 05:05:48;;;;;;;5.57;4.60;;;;;;;;;;2085388;28;20049;-81
2021/11/16 05:07:11;;;;;;;6.43;4.60;;;;;;;;;;2085938;28;20025;-80
2021/11/16 05:08:29;;;;;;;8.87;4.53;;;;;;;;;;2087468;28;20036;-81
2021/11/16 05:09:50;;;;;;;7.95;5.13;;;;;;;;;;2084102;28;20243;-81
2021/11/16 05:11:10;;;;;;;7.57;5.40;;;;;;;;;;2087535;28;20037;-80
2021/11/16 05:12:30;;;;;;;7.60;5.20;;;;;;;;;;2088807;28;20497;-81
2021/11/16 05:13:49;;;;;;;7.07;4.82;;;;;;;;;;2088329;28;20037;-80
2021/11/16 05:15:13;;;;;;;6.40;5.00;;;;;;;;;;2086108;28;20393;-81
2021/11/16 05:16:32;;;;;;;5.97;5.07;;;;;;;;;;2087324;28;20459;-80
2021/11/16 05:17:51;;;;;;;7.43;4.88;;;;;;;;;;2089334;28;20033;-80
2021/11/16 05:19:10;;;;;;;6.75;4.88;;;;;;;;;;2087546;28;20041;-81
2021/11/16 05:20:29;;;;;;;7.10;5.30;;;;;;;;;;2085843;28;20017;-80
2021/11/16 05:21:49;;;;;;;6.07;4.95;;;;;;;;;;2084037;28;20033;-80
2021/11/16 05:23:10;;;;;;;9.02;5.35;;;;;;;;;;2085894;28;20569;-80
2021/11/16 05:24:29;;;;;;;5.65;4.88;;;;;;;;;;2086333;28;20112;-80
2021/11/16 05:25:49;;;;;;;8.05;5.50;;;;;;;;;;2084858;28;21074;-80
2021/11/16 05:27:08;;;;;;;7.43;4.75;;;;;;;;;;2087061;28;20443;-80
2021/11/16 05:28:27;;;;;;;5.20;4.47;;;;;;;;;;2088909;28;20025;-80
2021/11/16 05:29:46;;;;;;;6.28;5.32;;;;;;;;;;2088016;28;20029;-81
2021/11/16 05:31:05;;;;;;;7.28;5.13;;;;;;;;;;2085876;28;20125;-81
2021/11/16 05:32:24;;;;;;;6.25;4.82;;;;;;;;;;2088232;28;20021;-80
2021/11/16 05:33:43;;;;;;;8.98;5.20;;;;;;;;;;2087947;28;20041;-82
2021/11/16 05:35:03;;;;;;;10.98;5.65;;;;;;;;;;2093258;28;20021;-81
2021/11/16 05:36:23;;;;;;;5.88;4.80;;;;;;;;;;2085885;28;20351;-81
2021/11/16 05:37:42;;;;;;;5.75;4.75;;;;;;;;;;2083254;28;20513;-81
2021/11/16 05:39:00;;;;;;;9.07;5.35;;;;;;;;;;2085317;28;20029;-80
2021/11/16 05:40:19;;;;;;;7.80;5.93;;;;;;;;;;2084336;28;20021;-81
2021/11/16 05:41:38;;;;;;;7.78;5.63;;;;;;;;;;2078429;28;20029;-81
2021/11/16 05:42:58;;;;;;;8.88;5.45;;;;;;;;;;2081057;28;20025;-80
2021/11/16 05:44:18;;;;;;;10.60;5.85;;;;;;;;;;2088669;28;20502;-81
2021/11/16 05:45:37;;;;;;;9.88;5.63;;;;;;;;;;2088977;28;20119;-80
2021/11/16 05:46:56;;;;;;;7.75;5.18;;;;;;;;;;2086019;28;20029;-81
2021/11/16 05:48:15;;;;;;;8.23;5.28;;;;;;;;;;2085066;28;20053;-81
2021/11/16 05:49:34;;;;;;;10.98;6.22;;;;;;;;;;2087633;28;20060;-81
2021/11/16 05:50:53;;;;;;;11.80;6.03;;;;;;;;;;2082249;28;20496;-80
2021/11/16 05:52:11;;;;;;;8.38;5.57;;;;;;;;;;2083324;28;20025;-80
2021/11/16 05:53:32;;;;;;;9.77;5.35;;;;;;;;;;2086751;28;20029;-81
2021/11/16 05:54:52;;;;;;;8.63;5.85;;;;;;;;;;2091329;28;20060;-81
2021/11/16 05:56:11;;;;;;;9.68;4.95;;;;;;;;;;2083584;28;20021;-81
2021/11/16 05:57:30;;;;;;;8.77;6.03;;;;;;;;;;2087884;28;20123;-80
2021/11/16 05:58:53;;;;;;;10.80;5.40;;;;;;;;;;2088994;28;20033;-81
2021/11/16 06:00:12;;;;;;;9.98;5.80;;;;;;;;;;2089101;28;20029;-81
2021/11/16 06:01:32;;;;;;;8.02;5.63;;;;;;;;;;2087354;28;20029;-82
2021/11/16 06:02:52;;;;;;;7.40;5.53;;;;;;;;;;2083944;28;20037;-82
2021/11/16 06:04:11;;;;;;;8.65;5.88;;;;;;;;;;2084167;28;20033;-81
2021/11/16 06:05:29;;;;;;;8.55;5.82;;;;;;;;;;2085786;28;20033;-81
2021/11/16 06:06:48;;;;;;;6.88;4.95;;;;;;;;;;2085307;28;20026;-81
2021/11/16 06:08:07;;;;;;;10.32;5.80;;;;;;;;;;2088282;28;20025;-81
2021/11/16 06:09:27;;;;;;;6.97;5.50;;;;;;;;;;2085482;28;20060;-80
2021/11/16 06:10:46;;;;;;;9.63;6.13;;;;;;;;;;2083160;28;20061;-82
2021/11/16 06:12:07;;;;;;;12.20;5.85;;;;;;;;;;2088030;28;20033;-81
2021/11/16 06:13:26;;;;;;;7.13;6.05;;;;;;;;;;2081173;28;20033;-80
2021/11/16 06:14:45;;;;;;;7.97;5.68;;;;;;;;;;2083985;28;20579;-83
2021/11/16 06:16:04;;;;;;;9.55;5.95;;;;;;;;;;2086445;28;20025;-82
2021/11/16 06:17:23;;;;;;;6.95;5.88;;;;;;;;;;2086593;28;20045;-81
2021/11/16 06:18:47;;;;;;;9.60;6.25;;;;;;;;;;2084730;28;20392;-82
2021/11/16 06:20:06;;;;;;;9.45;6.55;;;;;;;;;;2083884;28;20045;-82
2021/11/16 06:21:25;;;;;;;10.38;6.55;;;;;;;;;;2086155;28;20108;-83
2021/11/16 06:22:45;;;;;;;7.78;5.70;;;;;;;;;;2087645;28;20025;-82
2021/11/16 06:24:04;;;;;;;7.50;5.97;;;;;;;;;;2086670;28;20037;-82
2021/11/16 06:25:23;;;;;;;9.75;5.88;;;;;;;;;;2082612;28;20038;-84
2021/11/16 06:26:42;;;;;;;12.40;5.95;;;;;;;;;;2081530;28;20029;-82
2021/11/16 06:28:02;;;;;;;7.80;6.00;;;;;;;;;;2091495;28;20033;-83
2021/11/16 06:29:20;;;;;;;12.98;6.72;;;;;;;;;;2080115;28;20104;-82
2021/11/16 06:30:39;;;;;;;7.30;5.47;;;;;;;;;;2091048;28;20025;-83
2021/11/16 06:31:58;;;;;;;7.88;5.57;;;;;;;;;;2089100;28;20081;-83
2021/11/16 06:33:21;;;;;;;10.75;5.63;;;;;;;;;;2086128;28;20029;-83
2021/11/16 06:34:40;;;;;;;8.13;5.97;;;;;;;;;;2088920;28;20092;-83
2021/11/16 06:35:58;;;;;;;7.68;6.28;;;;;;;;;;2085000;28;20250;-82
2021/11/16 06:37:18;;;;;;;9.85;6.38;;;;;;;;;;2087969;28;20056;-83
2021/11/16 06:38:37;;;;;;;15.80;6.90;;;;;;;;;;2087098;28;20041;-83
2021/11/16 06:39:56;;;;;;;9.30;5.68;;;;;;;;;;2085508;28;20032;-82
2021/11/16 06:41:14;;;;;;;7.97;5.72;;;;;;;;;;2088382;28;20029;-82
2021/11/16 06:42:33;;;;;;;8.60;5.65;;;;;;;;;;2086132;28;20029;-84
2021/11/16 06:43:52;;;;;;;9.88;5.63;;;;;;;;;;2090027;28;20034;-82
2021/11/16 06:45:12;;;;;;;9.93;6.55;;;;;;;;;;2090533;28;20123;-82
2021/11/16 06:46:32;;;;;;;9.77;6.47;;;;;;;;;;2085600;28;20132;-83
2021/11/16 06:47:51;;;;;;;8.90;5.60;;;;;;;;;;2087424;28;20025;-82
2021/11/16 06:49:10;;;;;;;10.25;6.47;;;;;;;;;;2084411;28;20112;-83
2021/11/16 06:50:30;;;;;;;9.93;7.05;;;;;;;;;;2085222;28;20033;-84
2021/11/16 06:51:50;;;;;;;10.50;6.55;;;;;;;;;;2081846;28;20402;-83
2021/11/16 06:53:08;;;;;;;9.35;6.00;;;;;;;;;;2086603;28;20037;-84
2021/11/16 06:54:27;;;;;;;12.30;7.05;;;;;;;;;;2086566;28;20025;-83
2021/11/16 06:55:46;;;;;;;10.30;6.55;;;;;;;;;;2085588;28;20049;-85
2021/11/16 06:57:05;;;;;;;11.50;6.80;;;;;;;;;;2085743;28;20029;-82
2021/11/16 06:58:27;;;;;;;8.48;5.90;;;;;;;;;;2087108;28;20084;-83
2021/11/16 06:59:45;;;;;;;11.82;6.32;;;;;;;;;;2088636;28;20025;-82
2021/11/16 07:01:05;;;;;;;13.52;6.80;;;;;;;;;;2086859;28;20045;-83
2021/11/16 07:02:24;;;;;;;8.45;5.97;;;;;;;;;;2091078;28;20040;-83
2021/11/16 07:03:50;;;;;;;8.80;6.80;;;;;;;;;;2088314;28;20037;-83
2021/11/16 07:05:10;;;;;;;9.35;6.57;;;;;;;;;;2089467;28;20021;-81
2021/11/16 07:06:29;;;;;;;10.60;7.00;;;;;;;;;;2090020;28;20021;-84
2021/11/16 07:07:48;;;;;;;15.25;6.63;;;;;;;;;;2099183;28;20060;-82
2021/11/16 07:09:07;;;;;;;11.60;6.75;;;;;;;;;;2086724;28;20021;-83
2021/11/16 07:10:31;;;;;;;12.27;6.53;;;;;;;;;;2095336;28;20443;-83
2021/11/16 07:11:54;;;;;;;9.48;6.18;;;;;;;;;;2088829;28;20094;-83
2021/11/16 07:13:12;;;;;;;9.27;6.88;;;;;;;;;;2086774;28;20025;-82
2021/11/16 07:14:37;;;;;;;9.77;6.32;;;;;;;;;;2087643;28;20037;-83
2021/11/16 07:15:56;;;;;;;8.75;6.22;;;;;;;;;;2086906;28;20025;-82
2021/11/16 07:17:16;;;;;;;12.13;7.18;;;;;;;;;;2089652;28;20025;-84
2021/11/16 07:18:45;;;;;;;9.75;6.88;;;;;;;;;;2087595;28;20112;-83
2021/11/16 07:20:04;;;;;;;11.90;7.40;;;;;;;;;;2089285;28;20037;-83
2021/11/16 07:21:24;;;;;;;7.32;6.47;;;;;;;;;;2086776;28;20670;-82
2021/11/16 07:22:43;;;;;;;13.73;6.72;;;;;;;;;;2083639;28;20024;-83
2021/11/16 07:24:02;;;;;;;12.10;6.32;;;;;;;;;;2086603;28;20121;-82
2021/11/16 07:25:21;;;;;;;13.10;7.05;;;;;;;;;;2087638;28;20448;-82
2021/11/16 07:26:41;;;;;;;10.25;5.80;;;;;;;;;;2084967;28;20029;-83
2021/11/16 07:28:00;;;;;;;12.70;6.53;;;;;;;;;;2087828;28;20526;-84
2021/11/16 07:29:28;;;;;;;12.00;6.68;;;;;;;;;;2086184;28;20116;-84
2021/11/16 07:30:47;;;;;;;12.13;7.18;;;;;;;;;;2083805;28;20033;-83
2021/11/16 07:32:07;;;;;;;12.32;7.93;;;;;;;;;;2084022;28;20021;-84
2021/11/16 07:33:26;;;;;;;12.18;7.50;;;;;;;;;;2085924;28;20480;-84
2021/11/16 07:34:46;;;;;;;12.68;6.07;;;;;;;;;;2085163;28;20021;-84
2021/11/16 07:36:08;;;;;;;12.52;6.30;;;;;;;;;;2084317;28;20041;-85
2021/11/16 07:37:28;;;;;;;9.68;6.68;;;;;;;;;;2085224;28;20028;-85
2021/11/16 07:38:51;;;;;;;13.20;6.88;;;;;;;;;;2085768;28;20590;-84
2021/11/16 07:40:10;;;;;;;14.45;6.90;;;;;;;;;;2092405;28;20036;-82
2021/11/16 07:41:29;;;;;;;7.65;6.50;;;;;;;;;;2086746;28;20029;-82
2021/11/16 07:42:51;;;;;;;12.18;6.22;;;;;;;;;;2084013;28;20025;-82
2021/11/16 07:44:12;;;;;;;10.02;6.60;;;;;;;;;;2086333;28;20124;-83
2021/11/16 07:45:35;;;;;;;10.73;6.50;;;;;;;;;;2086684;28;20116;-82
2021/11/16 07:46:55;;;;;;;11.48;6.18;;;;;;;;;;2088317;28;20469;-83
2021/11/16 07:48:18;;;;;;;10.48;6.03;;;;;;;;;;2087014;28;20068;-83
2021/11/16 07:49:47;;;;;;;9.40;6.20;;;;;;;;;;2086968;28;20017;-82
2021/11/16 07:51:09;;;;;;;13.10;6.85;;;;;;;;;;2085329;28;20029;-83
2021/11/16 07:52:28;;;;;;;10.13;6.57;;;;;;;;;;2085518;28;20029;-82
2021/11/16 07:53:47;;;;;;;6.93;5.95;;;;;;;;;;2094856;28;20462;-84
2021/11/16 07:55:06;;;;;;;8.55;6.72;;;;;;;;;;2098399;28;20021;-83
2021/11/16 07:56:26;;;;;;;11.18;6.50;;;;;;;;;;2088078;28;20029;-84
2021/11/16 07:57:45;;;;;;;10.35;7.40;;;;;;;;;;2084297;28;20029;-84
2021/11/16 07:59:08;;;;;;;10.48;7.20;;;;;;;;;;2087492;28;20025;-84
2021/11/16 08:00:27;;;;;;;11.77;6.55;;;;;;;;;;2085490;28;20021;-83
2021/11/16 08:02:09;;;;;;;9.77;6.32;;;;;;;;;;2084327;28;20025;-83
2021/11/16 08:03:30;;;;;;;8.20;5.93;;;;;;;;;;2087853;28;20037;-83
2021/11/16 08:05:12;;;;;;;9.15;6.25;;;;;;;;;;2094617;28;20040;-84
2021/11/16 08:06:36;;;;;;;10.93;6.38;;;;;;;;;;2088144;28;20392;-84
2021/11/16 08:08:10;;;;;;;8.00;5.50;;;;;;;;;;2088136;28;20029;-84
2021/11/16 08:11:11;;;;;;;7.35;5.82;;;;;;;;;;2090561;28;19905;-83
2021/11/16 08:12:34;;;;;;;12.57;5.32;;;;;;;;;;2087851;28;20029;-83
2021/11/16 08:13:53;;;;;;;10.15;6.50;;;;;;;;;;2085633;28;20029;-83